Time;durP1;ratioP1;P1;durP2;ratioP2;P2;SDS_P1;SDS_P2;PMS_P1;PMS_P2;Temp;Humidity;BMP_temperature;BMP_pressure;BME280_temperature;BME280_humidity;BME280_pressure;Samples;Min_cycle;Max_cycle;Signal;HPM_P1;HPM_P2
2023/03/20 00:01:21;;;;;;;0.10;0.10;;;10.50;99.90;;;;;;5034085;28;20273;-85
2023/03/20 00:03:47;;;;;;;0.10;0.10;;;10.40;99.90;;;;;;5016072;28;20283;-85
2023/03/20 00:06:27;;;;;;;0.10;0.10;;;10.30;99.90;;;;;;5016657;28;20303;-84
2023/03/20 00:08:54;;;;;;;0.10;0.10;;;10.30;99.90;;;;;;5017769;28;20213;-85
2023/03/20 00:11:19;;;;;;;0.10;0.10;;;10.20;99.90;;;;;;5016457;28;20193;-85
2023/03/20 00:13:45;;;;;;;0.10;0.10;;;10.20;99.90;;;;;;5034039;28;20418;-85
2023/03/20 00:16:11;;;;;;;0.10;0.10;;;10.20;99.90;;;;;;5035000;28;20209;-85
2023/03/20 00:18:37;;;;;;;0.10;0.10;;;10.20;99.90;;;;;;5017485;28;20647;-85
2023/03/20 00:21:03;;;;;;;0.10;0.10;;;10.30;99.90;;;;;;5016114;28;20190;-85
2023/03/20 00:23:28;;;;;;;0.10;0.10;;;10.30;99.90;;;;;;5033630;28;20245;-85
2023/03/20 00:25:54;;;;;;;0.10;0.10;;;10.20;99.90;;;;;;5016753;28;20906;-84
2023/03/20 00:28:36;;;;;;;0.00;0.00;;;10.30;99.90;;;;;;5031521;28;20252;-85
2023/03/20 00:31:01;;;;;;;0.10;0.10;;;10.30;99.90;;;;;;5014106;28;20187;-85
2023/03/20 00:33:27;;;;;;;0.10;0.10;;;10.30;99.90;;;;;;5015970;28;20190;-85
2023/03/20 00:35:52;;;;;;;0.10;0.10;;;10.30;99.90;;;;;;5016598;28;20217;-86
2023/03/20 00:38:18;;;;;;;0.10;0.10;;;10.30;99.90;;;;;;5016850;28;20220;-84
2023/03/20 00:40:44;;;;;;;0.10;0.10;;;10.40;99.90;;;;;;5016440;28;20202;-85
2023/03/20 00:43:11;;;;;;;0.10;0.10;;;10.40;99.90;;;;;;5016656;28;20635;-86
2023/03/20 00:45:37;;;;;;;0.10;0.10;;;10.40;99.90;;;;;;5016528;28;20217;-84
2023/03/20 00:48:02;;;;;;;0.10;0.10;;;10.40;99.90;;;;;;5015391;28;20233;-85
2023/03/20 00:50:29;;;;;;;0.10;0.10;;;10.40;99.90;;;;;;5016873;28;20241;-85
2023/03/20 00:52:56;;;;;;;0.10;0.10;;;10.40;99.90;;;;;;5016357;28;20206;-85
2023/03/20 00:55:26;;;;;;;0.10;0.10;;;10.40;99.90;;;;;;5017471;28;20210;-85
2023/03/20 00:57:54;;;;;;;0.10;0.10;;;10.40;99.90;;;;;;5015982;28;20186;-85
2023/03/20 01:00:26;;;;;;;0.00;0.00;;;10.30;99.90;;;;;;5024983;28;20292;-85
2023/03/20 01:02:54;;;;;;;0.10;0.10;;;10.30;99.90;;;;;;5017050;28;20196;-86
2023/03/20 01:05:21;;;;;;;0.10;0.10;;;10.30;99.90;;;;;;5025981;28;20213;-85
2023/03/20 01:07:47;;;;;;;0.10;0.10;;;10.20;99.90;;;;;;5016417;28;20204;-85
2023/03/20 01:10:13;;;;;;;0.10;0.10;;;10.20;99.90;;;;;;5024501;28;20680;-86
2023/03/20 01:12:40;;;;;;;0.10;0.10;;;10.20;99.90;;;;;;5016457;28;20259;-86
2023/03/20 01:15:26;;;;;;;0.10;0.10;;;10.10;99.90;;;;;;5014371;28;20227;-86
2023/03/20 01:17:51;;;;;;;0.10;0.10;;;10.20;99.90;;;;;;5016488;28;20187;-86
2023/03/20 01:20:24;;;;;;;0.10;0.10;;;10.20;99.90;;;;;;5033010;28;20213;-85
2023/03/20 01:22:50;;;;;;;0.10;0.10;;;10.20;99.90;;;;;;5035468;28;20179;-85
2023/03/20 01:25:16;;;;;;;0.10;0.10;;;10.20;99.90;;;;;;5015662;28;20209;-85
2023/03/20 01:27:45;;;;;;;0.00;0.00;;;10.20;99.90;;;;;;5034927;28;20182;-85
2023/03/20 01:30:24;;;;;;;0.00;0.00;;;10.20;99.90;;;;;;5014972;28;20210;-84
2023/03/20 01:32:50;;;;;;;0.10;0.10;;;10.10;99.90;;;;;;5016221;28;20192;-84
2023/03/20 01:35:22;;;;;;;0.10;0.10;;;10.10;99.90;;;;;;5015392;28;20304;-85
2023/03/20 01:37:49;;;;;;;0.10;0.10;;;10.20;99.90;;;;;;5015787;28;20182;-85
2023/03/20 01:40:14;;;;;;;0.10;0.10;;;10.10;99.90;;;;;;5013558;28;20335;-84
2023/03/20 01:42:40;;;;;;;0.07;0.07;;;10.20;99.90;;;;;;5013338;28;20190;-85
2023/03/20 01:45:19;;;;;;;0.10;0.10;;;10.20;99.90;;;;;;5034006;28;20205;-85
2023/03/20 01:47:45;;;;;;;0.10;0.10;;;10.10;99.90;;;;;;5015361;28;20202;-85
2023/03/20 01:50:31;;;;;;;0.10;0.10;;;10.10;99.90;;;;;;5015113;28;20213;-85
2023/03/20 01:53:10;;;;;;;0.00;0.00;;;10.10;99.90;;;;;;5016148;28;20325;-85
2023/03/20 01:55:39;;;;;;;0.10;0.10;;;10.10;99.90;;;;;;5015191;28;20233;-84
2023/03/20 01:58:10;;;;;;;0.10;0.10;;;10.00;99.90;;;;;;5015965;28;20182;-85
2023/03/20 02:00:36;;;;;;;0.10;0.10;;;10.00;99.90;;;;;;5031680;28;20232;-85
2023/03/20 02:03:05;;;;;;;0.10;0.10;;;10.00;99.90;;;;;;5031445;28;20194;-84
2023/03/20 02:05:31;;;;;;;0.10;0.10;;;10.00;99.90;;;;;;5015327;28;20189;-84
2023/03/20 02:08:14;;;;;;;0.10;0.10;;;10.00;99.90;;;;;;5013438;28;21105;-84
2023/03/20 02:10:41;;;;;;;1.70;1.70;;;9.90;99.90;;;;;;5015608;28;20710;-84
2023/03/20 02:13:09;;;;;;;0.10;0.10;;;10.00;99.90;;;;;;5026185;28;20190;-84
2023/03/20 02:15:35;;;;;;;0.00;0.00;;;9.90;99.90;;;;;;5015737;28;20272;-84
2023/03/20 02:18:01;;;;;;;0.10;0.10;;;9.90;99.90;;;;;;5017588;28;20186;-84
2023/03/20 02:20:43;;;;;;;0.10;0.10;;;9.90;99.90;;;;;;5017186;28;20223;-84
2023/03/20 02:23:35;;;;;;;0.10;0.10;;;9.90;99.90;;;;;;5013642;28;20730;-84
2023/03/20 02:26:15;;;;;;;0.10;0.10;;;9.90;99.90;;;;;;5021248;28;20257;-85
2023/03/20 02:28:59;;;;;;;0.00;0.00;;;9.90;99.90;;;;;;5028573;28;20190;-84
2023/03/20 02:31:48;;;;;;;0.10;0.10;;;9.90;99.90;;;;;;5039384;28;20179;-85
2023/03/20 02:34:39;;;;;;;0.10;0.10;;;9.90;99.90;;;;;;5035302;28;20270;-84
2023/03/20 02:37:46;;;;;;;0.10;0.10;;;9.90;99.90;;;;;;5017165;28;20224;-85
2023/03/20 02:40:42;;;;;;;0.07;0.07;;;9.90;99.90;;;;;;5015877;28;20304;-85
2023/03/20 02:43:24;;;;;;;0.03;0.03;;;9.80;99.90;;;;;;5035716;28;20205;-84
2023/03/20 02:46:08;;;;;;;0.10;0.10;;;9.90;99.90;;;;;;5017301;28;20183;-84
2023/03/20 02:48:48;;;;;;;0.10;0.10;;;9.90;99.90;;;;;;5016711;28;20500;-84
2023/03/20 02:51:21;;;;;;;0.10;0.10;;;9.90;99.90;;;;;;5017951;28;20221;-85
2023/03/20 02:54:09;;;;;;;0.10;0.10;;;9.90;99.90;;;;;;5018724;28;20614;-85
2023/03/20 02:56:58;;;;;;;0.10;0.10;;;9.90;99.90;;;;;;5020673;28;20304;-85
2023/03/20 02:59:27;;;;;;;0.10;0.10;;;9.90;99.90;;;;;;5035538;28;20295;-85
2023/03/20 03:02:03;;;;;;;0.10;0.10;;;9.90;99.90;;;;;;5020822;28;20177;-84
2023/03/20 03:04:34;;;;;;;0.10;0.10;;;9.90;99.90;;;;;;5024870;28;20204;-84
2023/03/20 03:07:02;;;;;;;0.10;0.10;;;9.90;99.90;;;;;;5020199;28;20277;-85
2023/03/20 03:09:46;;;;;;;0.10;0.10;;;9.90;99.90;;;;;;5039017;28;20268;-84
2023/03/20 03:12:20;;;;;;;0.10;0.10;;;9.90;99.90;;;;;;5027303;28;20656;-84
2023/03/20 03:14:50;;;;;;;0.10;0.10;;;9.90;99.90;;;;;;5019016;28;20217;-84
2023/03/20 03:17:18;;;;;;;0.10;0.10;;;10.00;99.90;;;;;;5037174;28;20213;-84
2023/03/20 03:19:51;;;;;;;0.10;0.10;;;10.00;99.90;;;;;;5021631;28;20194;-84
2023/03/20 03:22:17;;;;;;;0.10;0.10;;;10.00;99.90;;;;;;5018386;28;20178;-85
2023/03/20 03:24:49;;;;;;;0.10;0.10;;;10.00;99.90;;;;;;5019431;28;20240;-85
2023/03/20 03:27:30;;;;;;;0.10;0.10;;;10.10;99.90;;;;;;5019003;28;20186;-85
2023/03/20 03:30:12;;;;;;;0.10;0.10;;;10.20;99.90;;;;;;5018187;28;20233;-85
2023/03/20 03:33:08;;;;;;;0.10;0.10;;;10.30;99.90;;;;;;5020193;28;20185;-85
2023/03/20 03:35:34;;;;;;;0.10;0.10;;;10.30;99.90;;;;;;5037803;28;20205;-85
2023/03/20 03:38:11;;;;;;;0.10;0.10;;;10.40;99.90;;;;;;5019132;28;20640;-84
2023/03/20 03:40:48;;;;;;;0.10;0.10;;;10.40;99.90;;;;;;5020537;28;20228;-83
2023/03/20 03:43:17;;;;;;;0.10;0.10;;;10.40;99.90;;;;;;5037478;28;20189;-84
2023/03/20 03:45:50;;;;;;;0.10;0.10;;;10.50;99.90;;;;;;5024628;28;20174;-84
2023/03/20 03:48:29;;;;;;;0.10;0.10;;;10.50;99.90;;;;;;5028244;28;20790;-84
2023/03/20 03:51:02;;;;;;;0.10;0.10;;;10.50;99.90;;;;;;5040218;28;20285;-84
2023/03/20 03:53:37;;;;;;;0.10;0.10;;;10.50;99.90;;;;;;5035637;28;20645;-85
2023/03/20 03:56:07;;;;;;;0.10;0.10;;;10.50;99.90;;;;;;5035060;28;20225;-85
2023/03/20 03:58:42;;;;;;;0.10;0.10;;;10.50;99.90;;;;;;5020362;28;20236;-85
2023/03/20 04:01:12;;;;;;;0.10;0.10;;;10.40;99.90;;;;;;5035938;28;20185;-85
2023/03/20 04:03:46;;;;;;;0.10;0.10;;;10.40;99.90;;;;;;5016052;28;20251;-86
2023/03/20 04:06:12;;;;;;;0.10;0.10;;;10.40;99.90;;;;;;5035706;28;20189;-85
2023/03/20 04:08:41;;;;;;;0.10;0.10;;;10.40;99.90;;;;;;5016337;28;20178;-85
2023/03/20 04:11:16;;;;;;;0.10;0.10;;;10.40;99.90;;;;;;5035081;28;20182;-85
2023/03/20 04:13:41;;;;;;;0.10;0.10;;;10.50;99.90;;;;;;5016669;28;21164;-85
2023/03/20 04:16:12;;;;;;;0.10;0.10;;;10.50;99.90;;;;;;5017797;28;20220;-86
2023/03/20 04:18:38;;;;;;;0.10;0.10;;;10.50;99.90;;;;;;5017356;28;20606;-85
2023/03/20 04:21:04;;;;;;;0.10;0.10;;;10.50;99.90;;;;;;5016220;28;20182;-86
2023/03/20 04:23:30;;;;;;;0.10;0.10;;;10.50;99.90;;;;;;5016528;28;20207;-85
2023/03/20 04:25:55;;;;;;;0.10;0.10;;;10.50;99.90;;;;;;5017292;28;20201;-85
2023/03/20 04:28:21;;;;;;;0.10;0.10;;;10.50;99.90;;;;;;5016600;28;20265;-84
2023/03/20 04:30:54;;;;;;;0.10;0.10;;;10.50;99.90;;;;;;5033726;28;20684;-86
2023/03/20 04:33:20;;;;;;;0.10;0.10;;;10.50;99.90;;;;;;5018777;28;20185;-86
2023/03/20 04:35:45;;;;;;;0.10;0.10;;;10.50;99.90;;;;;;5018160;28;20489;-86
2023/03/20 04:38:11;;;;;;;0.10;0.10;;;10.60;99.90;;;;;;5033593;28;20217;-86
2023/03/20 04:40:36;;;;;;;0.10;0.10;;;10.70;99.90;;;;;;5017598;28;20202;-85
2023/03/20 04:43:02;;;;;;;0.03;0.03;;;10.40;99.90;;;;;;5016330;28;20239;-86
2023/03/20 04:45:28;;;;;;;0.10;0.10;;;10.30;99.90;;;;;;5034485;28;20185;-85
2023/03/20 04:47:53;;;;;;;0.10;0.10;;;10.20;99.90;;;;;;5016851;28;20255;-85
2023/03/20 04:50:19;;;;;;;0.10;0.10;;;10.20;99.90;;;;;;5016994;28;20210;-86
2023/03/20 04:52:45;;;;;;;0.10;0.10;;;10.20;99.90;;;;;;5014259;28;20200;-85
2023/03/20 04:55:10;;;;;;;0.07;0.07;;;10.10;99.90;;;;;;5035697;28;20213;-86
2023/03/20 04:57:36;;;;;;;0.10;0.10;;;10.10;99.90;;;;;;5017111;28;20196;-84
2023/03/20 05:00:03;;;;;;;0.10;0.10;;;10.00;99.90;;;;;;5015896;28;20214;-86
2023/03/20 05:02:29;;;;;;;0.10;0.10;;;10.00;99.90;;;;;;5017737;28;20194;-84
2023/03/20 05:04:54;;;;;;;0.03;0.03;;;10.00;99.90;;;;;;5016126;28;20570;-86
2023/03/20 05:07:20;;;;;;;0.10;0.10;;;10.10;99.90;;;;;;5016686;28;20656;-86
2023/03/20 05:09:46;;;;;;;0.00;0.00;;;9.90;99.90;;;;;;5016471;28;20233;-85
2023/03/20 05:12:12;;;;;;;0.10;0.10;;;10.00;99.90;;;;;;5015361;28;20200;-86
2023/03/20 05:14:37;;;;;;;0.73;0.73;;;9.80;99.90;;;;;;5015204;28;20182;-84
2023/03/20 05:17:03;;;;;;;0.10;0.10;;;9.70;99.90;;;;;;5017806;28;20826;-84
2023/03/20 05:19:29;;;;;;;0.10;0.10;;;9.60;99.90;;;;;;5016100;28;21044;-86
2023/03/20 05:21:55;;;;;;;0.10;0.10;;;9.60;99.90;;;;;;5016408;28;20239;-85
2023/03/20 05:24:20;;;;;;;0.10;0.10;;;9.70;99.90;;;;;;5016626;28;20191;-86
2023/03/20 05:26:46;;;;;;;0.10;0.10;;;9.70;99.90;;;;;;5015816;28;20571;-84
2023/03/20 05:29:11;;;;;;;0.10;0.10;;;9.70;99.90;;;;;;5016629;28;20219;-85
2023/03/20 05:31:37;;;;;;;0.10;0.10;;;9.60;99.90;;;;;;5015507;28;20544;-86
2023/03/20 05:34:04;;;;;;;0.10;0.10;;;9.80;99.90;;;;;;5015745;28;20715;-85
2023/03/20 05:36:29;;;;;;;0.10;0.10;;;9.80;99.90;;;;;;5015878;28;20213;-85
2023/03/20 05:38:56;;;;;;;0.10;0.10;;;9.90;99.90;;;;;;5032571;28;20219;-86
2023/03/20 05:41:21;;;;;;;0.10;0.10;;;9.90;99.90;;;;;;5030990;28;20268;-85
2023/03/20 05:43:47;;;;;;;0.10;0.10;;;9.80;99.90;;;;;;5015751;28;20276;-85
2023/03/20 05:46:12;;;;;;;0.10;0.10;;;9.80;99.90;;;;;;5034137;28;20208;-83
2023/03/20 05:48:38;;;;;;;0.10;0.10;;;9.70;99.90;;;;;;5020819;28;20209;-85
2023/03/20 05:51:04;;;;;;;0.10;0.10;;;9.70;99.90;;;;;;5016714;28;20196;-85
2023/03/20 05:53:30;;;;;;;0.10;0.10;;;9.80;99.90;;;;;;5019206;28;20182;-84
2023/03/20 05:55:55;;;;;;;0.10;0.10;;;9.90;99.90;;;;;;5017252;28;20213;-86
2023/03/20 05:58:21;;;;;;;0.10;0.10;;;10.00;99.90;;;;;;5015260;28;20739;-86
2023/03/20 06:00:47;;;;;;;0.10;0.10;;;10.10;99.90;;;;;;5013694;28;20210;-86
2023/03/20 06:03:12;;;;;;;0.10;0.10;;;10.30;99.90;;;;;;5014948;28;20213;-86
2023/03/20 06:05:38;;;;;;;0.10;0.10;;;10.40;99.90;;;;;;5016624;28;20239;-86
2023/03/20 06:08:04;;;;;;;0.10;0.10;;;10.40;99.90;;;;;;5015655;28;20228;-85
2023/03/20 06:10:30;;;;;;;0.10;0.10;;;10.40;99.90;;;;;;5018157;28;20277;-82
2023/03/20 06:12:56;;;;;;;0.10;0.10;;;10.40;99.90;;;;;;5036563;28;20253;-82
2023/03/20 06:15:22;;;;;;;0.10;0.10;;;10.40;99.90;;;;;;5035512;28;20582;-83
2023/03/20 06:17:48;;;;;;;0.10;0.10;;;10.40;99.90;;;;;;5019550;28;20187;-83
2023/03/20 06:20:13;;;;;;;0.10;0.10;;;10.40;99.90;;;;;;5036912;28;20210;-83
2023/03/20 06:22:40;;;;;;;0.10;0.10;;;10.30;99.90;;;;;;5018485;28;20181;-82
2023/03/20 06:25:06;;;;;;;0.10;0.10;;;10.50;99.90;;;;;;5025159;28;20565;-83
2023/03/20 06:27:31;;;;;;;0.10;0.10;;;10.40;99.90;;;;;;5031517;28;20643;-83
2023/03/20 06:29:57;;;;;;;0.10;0.10;;;10.40;99.90;;;;;;5019865;28;20213;-88
2023/03/20 06:32:22;;;;;;;0.10;0.10;;;10.40;99.90;;;;;;5017238;28;20186;-83
2023/03/20 06:34:48;;;;;;;0.10;0.10;;;10.40;99.90;;;;;;5038601;28;20220;-83
2023/03/20 06:37:14;;;;;;;0.10;0.10;;;10.50;99.90;;;;;;5022094;28;20209;-83
2023/03/20 06:39:40;;;;;;;0.10;0.10;;;10.60;99.90;;;;;;5020994;28;20194;-83
2023/03/20 06:42:06;;;;;;;0.10;0.10;;;10.80;99.90;;;;;;5021230;28;20243;-83
2023/03/20 06:44:31;;;;;;;0.10;0.10;;;10.90;99.90;;;;;;5022764;28;20174;-83
2023/03/20 06:46:57;;;;;;;0.10;0.10;;;11.00;99.90;;;;;;5021902;28;20183;-84
2023/03/20 06:49:22;;;;;;;0.10;0.10;;;11.10;99.90;;;;;;5020983;28;20201;-84
2023/03/20 06:51:48;;;;;;;0.10;0.10;;;11.30;99.90;;;;;;5022697;28;20229;-84
2023/03/20 06:54:14;;;;;;;0.10;0.10;;;11.40;99.90;;;;;;5021376;28;20178;-83
2023/03/20 06:56:39;;;;;;;0.10;0.10;;;11.10;99.90;;;;;;5037645;28;20267;-84
2023/03/20 06:59:05;;;;;;;0.10;0.10;;;10.90;99.90;;;;;;5038899;28;20228;-84
2023/03/20 07:01:30;;;;;;;0.10;0.10;;;10.90;99.90;;;;;;5019582;28;20782;-84
2023/03/20 07:03:56;;;;;;;0.10;0.10;;;11.10;99.90;;;;;;5017339;28;20252;-84
2023/03/20 07:06:22;;;;;;;0.00;0.00;;;11.40;99.90;;;;;;5016007;28;20613;-84
2023/03/20 07:08:47;;;;;;;0.10;0.10;;;11.50;99.90;;;;;;5029430;28;20191;-84
2023/03/20 07:11:13;;;;;;;0.10;0.10;;;11.60;99.90;;;;;;5034818;28;20589;-83
2023/03/20 07:13:39;;;;;;;0.00;0.00;;;11.60;99.90;;;;;;5016511;28;20673;-84
2023/03/20 07:16:06;;;;;;;0.10;0.10;;;11.60;99.90;;;;;;5035365;28;20726;-84
2023/03/20 07:18:31;;;;;;;0.10;0.10;;;11.70;99.90;;;;;;5017053;28;20189;-82
2023/03/20 07:21:01;;;;;;;0.10;0.10;;;11.70;99.90;;;;;;5019157;28;20221;-83
2023/03/20 07:23:27;;;;;;;0.10;0.10;;;11.80;99.90;;;;;;5016484;28;20196;-83
2023/03/20 07:25:53;;;;;;;0.10;0.10;;;11.80;99.90;;;;;;5016777;28;20326;-83
2023/03/20 07:28:18;;;;;;;0.10;0.10;;;11.80;99.90;;;;;;5013493;28;20823;-83
2023/03/20 07:30:44;;;;;;;0.10;0.10;;;11.90;99.90;;;;;;5017339;28;20216;-82
2023/03/20 07:33:09;;;;;;;0.10;0.10;;;11.90;99.90;;;;;;5015750;28;20216;-83
2023/03/20 07:35:35;;;;;;;0.10;0.10;;;11.90;99.90;;;;;;5015070;28;20775;-84
2023/03/20 07:38:01;;;;;;;0.10;0.10;;;11.90;99.90;;;;;;5018905;28;20190;-82
2023/03/20 07:40:26;;;;;;;0.10;0.10;;;11.80;99.90;;;;;;5021491;28;20207;-83
2023/03/20 07:42:52;;;;;;;0.10;0.10;;;11.60;99.90;;;;;;5024331;28;20186;-83
2023/03/20 07:45:17;;;;;;;0.10;0.10;;;11.60;99.90;;;;;;5023651;28;20190;-83
2023/03/20 07:47:44;;;;;;;0.10;0.10;;;11.40;99.90;;;;;;5022440;28;20209;-83
2023/03/20 07:50:11;;;;;;;0.10;0.10;;;11.40;99.90;;;;;;5036989;28;20220;-83
2023/03/20 07:52:36;;;;;;;0.10;0.10;;;11.40;99.90;;;;;;5022114;28;22076;-82
2023/03/20 07:55:02;;;;;;;0.10;0.10;;;11.60;99.90;;;;;;5019757;28;20221;-83
2023/03/20 07:57:27;;;;;;;0.10;0.10;;;11.70;99.90;;;;;;5030394;28;20186;-83
2023/03/20 07:59:53;;;;;;;0.10;0.10;;;11.80;99.90;;;;;;5019147;28;20208;-83
2023/03/20 08:02:18;;;;;;;0.10;0.10;;;12.00;99.90;;;;;;5021420;28;20206;-83
2023/03/20 08:04:45;;;;;;;0.10;0.10;;;12.20;99.90;;;;;;5036342;28;21052;-83
2023/03/20 08:07:11;;;;;;;0.10;0.10;;;12.30;99.90;;;;;;5015429;28;20280;-83
2023/03/20 08:09:37;;;;;;;0.10;0.10;;;12.40;99.90;;;;;;5038960;28;20490;-83
2023/03/20 08:12:03;;;;;;;0.10;0.10;;;12.40;99.90;;;;;;5018942;28;20703;-83
2023/03/20 08:14:28;;;;;;;0.10;0.10;;;12.40;99.90;;;;;;5037415;28;20190;-84
2023/03/20 08:16:54;;;;;;;0.10;0.10;;;12.40;99.90;;;;;;5019294;28;20214;-84
2023/03/20 08:19:20;;;;;;;0.10;0.10;;;12.40;99.90;;;;;;5036861;28;20236;-83
2023/03/20 08:21:46;;;;;;;0.10;0.10;;;12.50;99.90;;;;;;5019779;28;20181;-83
2023/03/20 08:24:11;;;;;;;0.10;0.10;;;12.60;99.90;;;;;;5018688;28;20379;-83
2023/03/20 08:26:37;;;;;;;0.10;0.10;;;12.60;99.90;;;;;;5016313;28;20189;-84
2023/03/20 08:29:03;;;;;;;0.10;0.10;;;12.70;99.90;;;;;;5037496;28;20311;-85
2023/03/20 08:31:28;;;;;;;0.10;0.10;;;12.90;99.90;;;;;;5017345;28;20206;-84
2023/03/20 08:33:55;;;;;;;0.10;0.10;;;13.10;99.90;;;;;;5018474;28;20205;-85
2023/03/20 08:36:20;;;;;;;0.10;0.10;;;13.30;99.90;;;;;;5019884;28;20204;-85
2023/03/20 08:38:48;;;;;;;0.10;0.10;;;13.40;99.90;;;;;;5020046;28;20257;-84
2023/03/20 08:41:14;;;;;;;0.10;0.10;;;13.60;99.90;;;;;;5017130;28;20186;-85
2023/03/20 08:43:39;;;;;;;0.10;0.10;;;13.80;99.90;;;;;;5020399;28;21175;-84
2023/03/20 08:46:05;;;;;;;0.10;0.10;;;13.80;99.90;;;;;;5039296;28;20197;-85
2023/03/20 08:48:31;;;;;;;0.10;0.10;;;13.60;99.90;;;;;;5025783;28;20631;-84
2023/03/20 08:50:56;;;;;;;0.10;0.10;;;13.60;99.90;;;;;;5021306;28;20219;-84
2023/03/20 08:53:22;;;;;;;0.10;0.10;;;13.60;99.90;;;;;;5020977;28;21317;-84
2023/03/20 08:55:51;;;;;;;0.10;0.10;;;13.60;99.90;;;;;;5023866;28;20239;-84
2023/03/20 08:58:18;;;;;;;0.10;0.10;;;13.70;99.90;;;;;;5020849;28;20197;-83
2023/03/20 09:00:44;;;;;;;0.10;0.10;;;13.70;99.90;;;;;;5021932;28;21180;-83
2023/03/20 09:03:15;;;;;;;0.10;0.10;;;13.60;99.90;;;;;;5022674;28;21119;-84
2023/03/20 09:05:42;;;;;;;0.10;0.10;;;13.70;99.90;;;;;;5025319;28;20220;-85
2023/03/20 09:08:08;;;;;;;0.00;0.00;;;14.00;99.90;;;;;;5019486;28;20186;-83
2023/03/20 09:10:34;;;;;;;0.10;0.10;;;14.10;99.90;;;;;;5018758;28;20214;-84
2023/03/20 09:13:00;;;;;;;0.10;0.10;;;14.30;99.90;;;;;;5020664;28;20199;-84
2023/03/20 09:15:26;;;;;;;0.10;0.10;;;14.40;99.90;;;;;;5019055;28;20215;-84
2023/03/20 09:17:51;;;;;;;0.10;0.10;;;14.40;99.90;;;;;;5019338;28;20189;-83
2023/03/20 09:20:17;;;;;;;0.10;0.10;;;14.50;99.90;;;;;;5015650;28;20214;-84
2023/03/20 09:22:44;;;;;;;0.10;0.10;;;14.80;99.90;;;;;;5019737;28;20186;-84
2023/03/20 09:25:10;;;;;;;0.00;0.00;;;14.90;99.90;;;;;;5036227;28;20284;-84
2023/03/20 09:27:36;;;;;;;0.10;0.10;;;14.90;99.90;;;;;;5037866;28;20214;-84
2023/03/20 09:30:01;;;;;;;0.10;0.10;;;15.20;99.90;;;;;;5038378;28;20220;-84
2023/03/20 09:32:27;;;;;;;0.30;0.30;;;15.50;99.90;;;;;;5035582;28;20237;-83
2023/03/20 09:34:52;;;;;;;0.10;0.10;;;15.70;99.90;;;;;;5017751;28;20662;-84
2023/03/20 09:37:18;;;;;;;0.10;0.10;;;15.70;99.90;;;;;;5019845;28;20192;-83
2023/03/20 09:39:43;;;;;;;0.10;0.10;;;15.80;99.90;;;;;;5037866;28;20206;-84
2023/03/20 09:42:45;;;;;;;0.10;0.10;;;15.70;99.90;;;;;;5019052;28;20186;-84
2023/03/20 09:45:33;;;;;;;0.10;0.10;;;15.60;99.90;;;;;;5016505;28;20189;-84
2023/03/20 09:48:07;;;;;;;0.10;0.10;;;15.40;99.90;;;;;;5018209;28;20532;-83
2023/03/20 09:50:38;;;;;;;0.10;0.10;;;15.10;99.90;;;;;;5016902;28;20236;-84
2023/03/20 09:53:22;;;;;;;0.10;0.10;;;14.90;99.90;;;;;;5034228;28;20220;-85
2023/03/20 09:55:49;;;;;;;0.10;0.10;;;14.90;99.90;;;;;;5017201;28;20295;-84
2023/03/20 09:58:24;;;;;;;0.10;0.10;;;15.10;99.90;;;;;;5035031;28;20247;-84
2023/03/20 10:00:50;;;;;;;0.10;0.10;;;15.40;99.90;;;;;;5014329;28;20201;-83
2023/03/20 10:03:20;;;;;;;0.10;0.10;;;15.40;99.90;;;;;;5014732;28;20188;-84
2023/03/20 10:05:49;;;;;;;0.10;0.10;;;15.60;99.90;;;;;;5016466;28;20193;-84
2023/03/20 10:08:20;;;;;;;0.10;0.10;;;15.80;99.90;;;;;;5019219;28;20214;-84
2023/03/20 10:11:00;;;;;;;0.10;0.10;;;15.70;99.90;;;;;;5023982;28;20443;-84
2023/03/20 10:13:38;;;;;;;0.10;0.10;;;15.70;99.90;;;;;;5023955;28;20426;-84
2023/03/20 10:16:22;;;;;;;0.10;0.10;;;15.90;99.90;;;;;;5020555;28;20262;-84
2023/03/20 10:19:19;;;;;;;0.10;0.10;;;16.00;99.90;;;;;;5020723;28;20497;-84
2023/03/20 10:21:48;;;;;;;0.10;0.10;;;16.30;99.90;;;;;;5010740;28;20281;-84
2023/03/20 10:24:38;;;;;;;0.10;0.10;;;16.40;99.90;;;;;;5036476;28;20288;-83
2023/03/20 10:27:31;;;;;;;0.10;0.10;;;16.50;99.90;;;;;;5039901;28;20547;-84
2023/03/20 10:30:22;;;;;;;0.10;0.10;;;16.50;99.90;;;;;;5019458;28;20201;-84
2023/03/20 10:33:23;;;;;;;0.10;0.10;;;16.50;99.90;;;;;;5018758;28;20651;-84
2023/03/20 10:36:02;;;;;;;0.10;0.10;;;16.20;99.90;;;;;;5016922;28;20205;-84
2023/03/20 10:38:30;;;;;;;0.10;0.10;;;16.10;99.90;;;;;;5018945;28;20209;-84
2023/03/20 10:40:57;;;;;;;0.40;0.40;;;16.00;99.90;;;;;;5020241;28;20301;-84
2023/03/20 10:43:31;;;;;;;0.10;0.10;;;16.00;99.90;;;;;;5029830;28;20928;-84
2023/03/20 10:46:14;;;;;;;0.10;0.10;;;16.00;99.90;;;;;;5019010;28;20197;-84
2023/03/20 10:48:46;;;;;;;0.10;0.10;;;16.10;99.90;;;;;;5019580;28;20185;-84
2023/03/20 10:51:16;;;;;;;0.10;0.10;;;16.20;99.90;;;;;;5017686;28;20209;-84
2023/03/20 10:53:51;;;;;;;0.10;0.10;;;16.20;99.90;;;;;;5037406;28;20196;-84
2023/03/20 10:56:35;;;;;;;0.10;0.10;;;16.10;99.90;;;;;;5034691;28;20228;-84
2023/03/20 10:59:25;;;;;;;0.10;0.10;;;16.10;99.90;;;;;;5021886;28;20790;-83
2023/03/20 11:01:50;;;;;;;0.10;0.10;;;15.80;99.90;;;;;;5020971;28;20186;-83
2023/03/20 11:04:16;;;;;;;0.10;0.10;;;15.60;99.90;;;;;;5023194;28;20189;-84
2023/03/20 11:07:16;;;;;;;0.10;0.10;;;15.40;99.90;;;;;;5024146;28;20693;-84
2023/03/20 11:09:42;;;;;;;0.10;0.10;;;15.20;99.90;;;;;;5019721;28;20209;-83
2023/03/20 11:12:19;;;;;;;0.10;0.10;;;15.20;99.90;;;;;;5041394;28;20202;-84
2023/03/20 11:14:45;;;;;;;0.10;0.10;;;15.10;99.90;;;;;;5026354;28;20194;-84
2023/03/20 11:17:11;;;;;;;0.10;0.10;;;15.00;99.90;;;;;;5022736;28;20529;-85
2023/03/20 11:19:39;;;;;;;0.10;0.10;;;15.10;99.90;;;;;;5020750;28;20253;-84
2023/03/20 11:22:24;;;;;;;0.10;0.10;;;15.30;99.90;;;;;;5019065;28;20213;-84
2023/03/20 11:24:53;;;;;;;0.10;0.10;;;15.70;99.90;;;;;;5023941;28;20189;-83
2023/03/20 11:27:26;;;;;;;0.10;0.10;;;15.60;99.90;;;;;;5020909;28;20190;-83
2023/03/20 11:29:54;;;;;;;0.10;0.10;;;15.50;99.90;;;;;;5023718;28;20205;-84
2023/03/20 11:32:27;;;;;;;0.10;0.10;;;15.60;99.90;;;;;;5033687;28;20233;-84
2023/03/20 11:34:56;;;;;;;0.10;0.10;;;15.50;99.90;;;;;;5025009;28;20196;-84
2023/03/20 11:37:33;;;;;;;0.10;0.10;;;15.90;99.90;;;;;;5022742;28;20189;-83
2023/03/20 11:40:08;;;;;;;0.10;0.10;;;16.20;99.90;;;;;;5042832;28;20753;-84
2023/03/20 11:42:35;;;;;;;0.10;0.10;;;16.30;99.90;;;;;;5024083;28;20209;-83
2023/03/20 11:45:15;;;;;;;0.10;0.10;;;16.70;99.90;;;;;;5030469;28;20189;-83
2023/03/20 11:47:41;;;;;;;0.10;0.10;;;16.90;99.90;;;;;;5048748;28;20204;-83
2023/03/20 11:50:37;;;;;;;0.10;0.10;;;16.90;99.90;;;;;;5046163;28;20240;-83
2023/03/20 11:53:19;;;;;;;0.10;0.10;;;17.00;99.90;;;;;;5027352;28;20210;-84
2023/03/20 11:55:58;;;;;;;0.10;0.10;;;16.80;99.90;;;;;;5025996;28;20216;-84
2023/03/20 11:58:24;;;;;;;0.10;0.10;;;17.10;99.90;;;;;;5025802;28;20195;-83
2023/03/20 12:00:53;;;;;;;0.10;0.10;;;17.30;99.90;;;;;;5022818;28;20228;-83
2023/03/20 12:03:34;;;;;;;0.10;0.10;;;17.50;99.90;;;;;;5024351;28;20813;-84
2023/03/20 12:06:00;;;;;;;0.10;0.10;;;17.30;99.90;;;;;;5037807;28;20201;-83
2023/03/20 12:08:28;;;;;;;0.10;0.10;;;17.30;99.90;;;;;;5043404;28;20174;-84
2023/03/20 12:11:01;;;;;;;0.10;0.10;;;17.10;99.90;;;;;;5020688;28;20203;-84
2023/03/20 12:13:36;;;;;;;0.10;0.10;;;17.00;99.90;;;;;;5039941;28;20190;-83
2023/03/20 12:16:06;;;;;;;0.10;0.10;;;17.00;99.90;;;;;;5021234;28;20224;-84
2023/03/20 12:18:37;;;;;;;0.10;0.10;;;17.00;99.90;;;;;;5021151;28;20247;-84
2023/03/20 12:21:21;;;;;;;0.10;0.10;;;17.00;99.90;;;;;;5023514;28;20756;-83
2023/03/20 12:23:56;;;;;;;0.10;0.10;;;16.80;99.90;;;;;;5022574;28;20190;-83
2023/03/20 12:26:51;;;;;;;0.10;0.10;;;16.80;99.90;;;;;;5025213;28;20201;-83
2023/03/20 12:29:29;;;;;;;0.10;0.10;;;16.50;99.90;;;;;;5020453;28;20305;-84
2023/03/20 12:32:13;;;;;;;0.10;0.10;;;16.40;99.90;;;;;;5039468;28;20190;-84
2023/03/20 12:35:11;;;;;;;0.10;0.10;;;16.30;99.90;;;;;;5042538;28;20178;-84
2023/03/20 12:37:36;;;;;;;0.10;0.10;;;16.30;99.90;;;;;;4991078;28;20212;-84
2023/03/20 12:40:03;;;;;;;0.10;0.10;;;16.30;99.90;;;;;;5044366;28;20218;-83
2023/03/20 12:42:47;;;;;;;0.10;0.10;;;16.10;99.90;;;;;;5023495;28;20192;-84
2023/03/20 12:45:22;;;;;;;0.10;0.10;;;16.10;99.90;;;;;;5021906;28;20662;-84
2023/03/20 12:48:33;;;;;;;0.10;0.10;;;16.20;99.90;;;;;;5023584;28;20184;-84
2023/03/20 12:51:10;;;;;;;0.10;0.10;;;16.00;99.90;;;;;;5022974;28;20213;-84
2023/03/20 12:54:01;;;;;;;0.10;0.10;;;15.90;99.90;;;;;;5023905;28;20434;-83
2023/03/20 12:56:30;;;;;;;0.10;0.10;;;15.80;99.90;;;;;;5016343;28;20614;-83
2023/03/20 12:59:17;;;;;;;0.10;0.10;;;15.70;99.90;;;;;;5036175;28;20178;-84
2023/03/20 13:02:11;;;;;;;0.10;0.10;;;15.70;99.90;;;;;;5015948;28;20190;-85
2023/03/20 13:05:04;;;;;;;0.10;0.10;;;15.50;99.90;;;;;;5017307;28;20643;-85
2023/03/20 13:07:51;;;;;;;0.10;0.10;;;15.40;99.90;;;;;;5014614;28;20186;-85